Terminal Aerodrome Forecast
Issued by NWS

Home | Current Version | Previous Version | Text Only | Print | Product List | Glossary On
Versions: 1 2 3 4 5 6 7 8 9 10 11 12 13 14 15
000
FTAK31 PAJN 280500
TAFAYA
TAF
PAYA 280531Z 2806/2906 05005KT P6SM VCSH FEW020 BKN035 BKN050
      TEMPO 2806/2810 VRB04KT 4SM -SHRA SCT015 BKN025 OVC030
     FM281000 05005KT P6SM VCFG FEW005 SCT040 BKN060
     FM281700 06008KT P6SM FEW010 SCT150
     FM290000 06012KT P6SM VCSH SCT035 OVC060
      AMD LTD TO CLD VIS AND WIND 2806/2810=

USA.gov is the U.S. government's official web portal to all federal, state and local government web resources and services.